sensor_id;sensor_type;location;lat;lon;timestamp;temperature;humidity
17632;DHT22;8934;51.194;17.150;2023-02-20T00:02:39;0.50;99.90
17632;DHT22;8934;51.194;17.150;2023-02-20T00:05:26;0.40;99.90
17632;DHT22;8934;51.194;17.150;2023-02-20T00:08:14;0.40;99.90
17632;DHT22;8934;51.194;17.150;2023-02-20T00:11:02;0.40;99.90
17632;DHT22;8934;51.194;17.150;2023-02-20T00:13:51;0.50;99.90
17632;DHT22;8934;51.194;17.150;2023-02-20T00:16:38;0.40;99.90
17632;DHT22;8934;51.194;17.150;2023-02-20T00:19:26;0.40;99.90
17632;DHT22;8934;51.194;17.150;2023-02-20T00:22:14;0.40;99.90
17632;DHT22;8934;51.194;17.150;2023-02-20T00:25:01;0.50;99.90
17632;DHT22;8934;51.194;17.150;2023-02-20T00:27:49;0.50;99.90
17632;DHT22;8934;51.194;17.150;2023-02-20T00:30:38;0.60;99.90
17632;DHT22;8934;51.194;17.150;2023-02-20T00:33:26;0.50;99.90
17632;DHT22;8934;51.194;17.150;2023-02-20T00:36:14;0.40;99.90
17632;DHT22;8934;51.194;17.150;2023-02-20T00:39:03;0.40;99.90
17632;DHT22;8934;51.194;17.150;2023-02-20T00:41:50;0.30;99.90
17632;DHT22;8934;51.194;17.150;2023-02-20T00:44:38;0.30;99.90
17632;DHT22;8934;51.194;17.150;2023-02-20T00:47:27;0.40;99.90
17632;DHT22;8934;51.194;17.150;2023-02-20T00:50:16;0.40;99.90
17632;DHT22;8934;51.194;17.150;2023-02-20T00:53:04;0.50;99.90
17632;DHT22;8934;51.194;17.150;2023-02-20T00:55:51;0.60;99.90
17632;DHT22;8934;51.194;17.150;2023-02-20T00:58:39;0.70;99.90
17632;DHT22;8934;51.194;17.150;2023-02-20T01:01:28;0.80;99.90
17632;DHT22;8934;51.194;17.150;2023-02-20T01:04:17;0.90;99.90
17632;DHT22;8934;51.194;17.150;2023-02-20T01:07:07;1.00;99.90
17632;DHT22;8934;51.194;17.150;2023-02-20T01:09:56;1.00;99.90
17632;DHT22;8934;51.194;17.150;2023-02-20T01:12:44;1.00;99.90
17632;DHT22;8934;51.194;17.150;2023-02-20T01:15:32;1.10;99.90
17632;DHT22;8934;51.194;17.150;2023-02-20T01:18:19;1.00;99.90
17632;DHT22;8934;51.194;17.150;2023-02-20T01:21:11;1.00;99.90
17632;DHT22;8934;51.194;17.150;2023-02-20T01:24:00;1.00;99.90
17632;DHT22;8934;51.194;17.150;2023-02-20T01:26:48;1.00;99.90
17632;DHT22;8934;51.194;17.150;2023-02-20T01:29:36;1.00;99.90
17632;DHT22;8934;51.194;17.150;2023-02-20T01:32:24;1.00;99.90
17632;DHT22;8934;51.194;17.150;2023-02-20T01:35:12;1.00;99.90
17632;DHT22;8934;51.194;17.150;2023-02-20T01:38:00;1.00;99.90
17632;DHT22;8934;51.194;17.150;2023-02-20T01:40:51;1.00;99.90
17632;DHT22;8934;51.194;17.150;2023-02-20T01:43:39;1.00;99.90
17632;DHT22;8934;51.194;17.150;2023-02-20T01:46:46;1.10;99.90
17632;DHT22;8934;51.194;17.150;2023-02-20T01:49:38;1.00;99.90
17632;DHT22;8934;51.194;17.150;2023-02-20T01:52:29;1.00;99.90
17632;DHT22;8934;51.194;17.150;2023-02-20T01:55:22;1.00;99.90
17632;DHT22;8934;51.194;17.150;2023-02-20T01:58:16;1.00;99.90
17632;DHT22;8934;51.194;17.150;2023-02-20T02:01:08;1.00;99.90
17632;DHT22;8934;51.194;17.150;2023-02-20T02:03:59;1.00;99.90
17632;DHT22;8934;51.194;17.150;2023-02-20T02:06:49;1.00;99.90
17632;DHT22;8934;51.194;17.150;2023-02-20T02:09:42;1.00;99.90
17632;DHT22;8934;51.194;17.150;2023-02-20T02:12:32;1.00;99.90
17632;DHT22;8934;51.194;17.150;2023-02-20T02:15:23;1.00;99.90
17632;DHT22;8934;51.194;17.150;2023-02-20T02:18:32;0.90;99.90
17632;DHT22;8934;51.194;17.150;2023-02-20T02:21:59;0.90;99.90
17632;DHT22;8934;51.194;17.150;2023-02-20T02:28:43;0.70;99.90
17632;DHT22;8934;51.194;17.150;2023-02-20T02:32:03;0.50;99.90
17632;DHT22;8934;51.194;17.150;2023-02-20T02:38:24;0.20;99.90
17632;DHT22;8934;51.194;17.150;2023-02-20T02:41:19;0.10;99.90
17632;DHT22;8934;51.194;17.150;2023-02-20T02:44:13;0.00;99.90
17632;DHT22;8934;51.194;17.150;2023-02-20T02:47:04;-0.20;99.90
17632;DHT22;8934;51.194;17.150;2023-02-20T02:49:57;-0.30;99.90
17632;DHT22;8934;51.194;17.150;2023-02-20T02:52:46;-0.40;99.90
17632;DHT22;8934;51.194;17.150;2023-02-20T02:55:36;-0.50;99.90
17632;DHT22;8934;51.194;17.150;2023-02-20T02:58:24;-0.50;99.90
17632;DHT22;8934;51.194;17.150;2023-02-20T03:01:13;-0.60;99.90
17632;DHT22;8934;51.194;17.150;2023-02-20T03:04:03;-0.70;99.90
17632;DHT22;8934;51.194;17.150;2023-02-20T03:06:57;-0.70;99.90
17632;DHT22;8934;51.194;17.150;2023-02-20T03:09:49;-0.80;99.90
17632;DHT22;8934;51.194;17.150;2023-02-20T03:12:41;-0.90;99.90
17632;DHT22;8934;51.194;17.150;2023-02-20T03:15:36;-0.90;99.90
17632;DHT22;8934;51.194;17.150;2023-02-20T03:18:28;-0.90;99.90
17632;DHT22;8934;51.194;17.150;2023-02-20T03:21:21;-0.90;99.90
17632;DHT22;8934;51.194;17.150;2023-02-20T03:24:10;-0.90;99.90
17632;DHT22;8934;51.194;17.150;2023-02-20T03:27:01;-0.90;99.90
17632;DHT22;8934;51.194;17.150;2023-02-20T03:29:55;-0.90;99.90
17632;DHT22;8934;51.194;17.150;2023-02-20T03:32:46;-0.80;99.90
17632;DHT22;8934;51.194;17.150;2023-02-20T03:35:55;-0.70;99.90
17632;DHT22;8934;51.194;17.150;2023-02-20T03:39:04;-0.60;99.90
17632;DHT22;8934;51.194;17.150;2023-02-20T03:42:13;-0.50;99.90
17632;DHT22;8934;51.194;17.150;2023-02-20T03:45:31;-0.50;99.90
17632;DHT22;8934;51.194;17.150;2023-02-20T03:48:25;-0.40;99.90
17632;DHT22;8934;51.194;17.150;2023-02-20T03:51:15;-0.30;99.90
17632;DHT22;8934;51.194;17.150;2023-02-20T03:54:27;-0.30;99.90
17632;DHT22;8934;51.194;17.150;2023-02-20T03:57:17;-0.30;99.90
17632;DHT22;8934;51.194;17.150;2023-02-20T04:00:11;-0.20;99.90
17632;DHT22;8934;51.194;17.150;2023-02-20T04:03:11;-0.20;99.90
17632;DHT22;8934;51.194;17.150;2023-02-20T04:06:04;-0.20;99.90
17632;DHT22;8934;51.194;17.150;2023-02-20T04:08:59;-0.10;99.90
17632;DHT22;8934;51.194;17.150;2023-02-20T04:11:54;0.00;99.90
17632;DHT22;8934;51.194;17.150;2023-02-20T04:14:45;0.00;99.90
17632;DHT22;8934;51.194;17.150;2023-02-20T04:17:39;0.10;99.90
17632;DHT22;8934;51.194;17.150;2023-02-20T04:20:28;0.10;99.90
17632;DHT22;8934;51.194;17.150;2023-02-20T04:23:26;0.20;99.90
17632;DHT22;8934;51.194;17.150;2023-02-20T04:26:16;0.20;99.90
17632;DHT22;8934;51.194;17.150;2023-02-20T04:29:06;0.10;99.90
17632;DHT22;8934;51.194;17.150;2023-02-20T04:31:54;0.10;99.90
17632;DHT22;8934;51.194;17.150;2023-02-20T04:34:46;0.20;99.90
17632;DHT22;8934;51.194;17.150;2023-02-20T04:37:36;0.10;99.90
17632;DHT22;8934;51.194;17.150;2023-02-20T04:40:24;0.10;99.90
17632;DHT22;8934;51.194;17.150;2023-02-20T04:43:12;0.20;99.90
17632;DHT22;8934;51.194;17.150;2023-02-20T04:46:00;0.20;99.90
17632;DHT22;8934;51.194;17.150;2023-02-20T04:48:48;0.20;99.90
17632;DHT22;8934;51.194;17.150;2023-02-20T04:51:35;0.20;99.90
17632;DHT22;8934;51.194;17.150;2023-02-20T04:54:25;0.20;99.90
17632;DHT22;8934;51.194;17.150;2023-02-20T04:57:12;0.20;99.90
17632;DHT22;8934;51.194;17.150;2023-02-20T05:00:00;0.30;99.90
17632;DHT22;8934;51.194;17.150;2023-02-20T05:02:48;0.40;99.90
17632;DHT22;8934;51.194;17.150;2023-02-20T05:05:36;0.40;99.90
17632;DHT22;8934;51.194;17.150;2023-02-20T05:08:23;0.50;99.90
17632;DHT22;8934;51.194;17.150;2023-02-20T05:11:13;0.60;99.90
17632;DHT22;8934;51.194;17.150;2023-02-20T05:14:00;0.60;99.90
17632;DHT22;8934;51.194;17.150;2023-02-20T05:16:48;0.60;99.90
17632;DHT22;8934;51.194;17.150;2023-02-20T05:19:36;0.60;99.90
17632;DHT22;8934;51.194;17.150;2023-02-20T05:22:23;0.70;99.90
17632;DHT22;8934;51.194;17.150;2023-02-20T05:25:11;0.70;99.90
17632;DHT22;8934;51.194;17.150;2023-02-20T05:28:01;0.70;99.90
17632;DHT22;8934;51.194;17.150;2023-02-20T05:30:49;0.70;99.90
17632;DHT22;8934;51.194;17.150;2023-02-20T05:33:37;0.70;99.90
17632;DHT22;8934;51.194;17.150;2023-02-20T05:36:25;0.70;99.90
17632;DHT22;8934;51.194;17.150;2023-02-20T05:39:12;0.70;99.90
17632;DHT22;8934;51.194;17.150;2023-02-20T05:41:59;0.70;99.90
17632;DHT22;8934;51.194;17.150;2023-02-20T05:44:48;0.70;99.90
17632;DHT22;8934;51.194;17.150;2023-02-20T05:47:36;0.70;99.90
17632;DHT22;8934;51.194;17.150;2023-02-20T05:50:24;0.70;99.90
17632;DHT22;8934;51.194;17.150;2023-02-20T05:53:11;0.70;99.90
17632;DHT22;8934;51.194;17.150;2023-02-20T05:55:59;0.70;99.90
17632;DHT22;8934;51.194;17.150;2023-02-20T05:58:47;0.70;99.90
17632;DHT22;8934;51.194;17.150;2023-02-20T06:01:36;0.70;99.90
17632;DHT22;8934;51.194;17.150;2023-02-20T06:04:24;0.70;99.90
17632;DHT22;8934;51.194;17.150;2023-02-20T06:07:12;0.80;99.90
17632;DHT22;8934;51.194;17.150;2023-02-20T06:09:59;0.80;99.90
17632;DHT22;8934;51.194;17.150;2023-02-20T06:12:47;0.80;99.90
17632;DHT22;8934;51.194;17.150;2023-02-20T06:15:35;1.00;99.90
17632;DHT22;8934;51.194;17.150;2023-02-20T06:18:24;1.10;99.90
17632;DHT22;8934;51.194;17.150;2023-02-20T06:21:11;1.40;99.90
17632;DHT22;8934;51.194;17.150;2023-02-20T06:23:59;1.70;99.90
17632;DHT22;8934;51.194;17.150;2023-02-20T06:26:47;1.90;99.90
17632;DHT22;8934;51.194;17.150;2023-02-20T06:29:34;2.20;99.90
17632;DHT22;8934;51.194;17.150;2023-02-20T06:32:22;2.40;99.90
17632;DHT22;8934;51.194;17.150;2023-02-20T06:35:11;2.60;99.90
17632;DHT22;8934;51.194;17.150;2023-02-20T06:37:59;2.70;99.90
17632;DHT22;8934;51.194;17.150;2023-02-20T06:40:47;2.90;99.90
17632;DHT22;8934;51.194;17.150;2023-02-20T06:43:34;3.00;99.90
17632;DHT22;8934;51.194;17.150;2023-02-20T06:46:22;3.10;99.90
17632;DHT22;8934;51.194;17.150;2023-02-20T06:49:10;3.10;99.90
17632;DHT22;8934;51.194;17.150;2023-02-20T06:51:58;3.20;99.90
17632;DHT22;8934;51.194;17.150;2023-02-20T06:54:49;3.30;99.90
17632;DHT22;8934;51.194;17.150;2023-02-20T06:57:38;3.40;99.90
17632;DHT22;8934;51.194;17.150;2023-02-20T07:00:26;3.50;99.90
17632;DHT22;8934;51.194;17.150;2023-02-20T07:03:14;3.60;99.90
17632;DHT22;8934;51.194;17.150;2023-02-20T07:06:02;3.70;99.90
17632;DHT22;8934;51.194;17.150;2023-02-20T07:08:51;3.80;99.90
17632;DHT22;8934;51.194;17.150;2023-02-20T07:11:39;3.90;99.90
17632;DHT22;8934;51.194;17.150;2023-02-20T07:14:26;4.00;99.90
17632;DHT22;8934;51.194;17.150;2023-02-20T07:17:14;4.00;99.90
17632;DHT22;8934;51.194;17.150;2023-02-20T07:20:01;4.10;99.90
17632;DHT22;8934;51.194;17.150;2023-02-20T07:22:50;4.20;99.90
17632;DHT22;8934;51.194;17.150;2023-02-20T07:25:41;4.30;99.90
17632;DHT22;8934;51.194;17.150;2023-02-20T07:28:28;4.40;99.90
17632;DHT22;8934;51.194;17.150;2023-02-20T07:31:16;4.50;99.90
17632;DHT22;8934;51.194;17.150;2023-02-20T07:34:03;4.60;99.90
17632;DHT22;8934;51.194;17.150;2023-02-20T07:36:56;4.60;99.90
17632;DHT22;8934;51.194;17.150;2023-02-20T07:39:44;4.70;99.90
17632;DHT22;8934;51.194;17.150;2023-02-20T07:42:33;4.80;99.90
17632;DHT22;8934;51.194;17.150;2023-02-20T07:45:39;4.80;99.90
17632;DHT22;8934;51.194;17.150;2023-02-20T07:48:27;4.80;99.90
17632;DHT22;8934;51.194;17.150;2023-02-20T07:51:15;4.90;99.90
17632;DHT22;8934;51.194;17.150;2023-02-20T07:54:03;4.90;99.90
17632;DHT22;8934;51.194;17.150;2023-02-20T07:56:50;4.90;99.90
17632;DHT22;8934;51.194;17.150;2023-02-20T07:59:39;5.00;99.90
17632;DHT22;8934;51.194;17.150;2023-02-20T08:02:27;5.10;99.90
17632;DHT22;8934;51.194;17.150;2023-02-20T08:05:15;5.10;99.90
17632;DHT22;8934;51.194;17.150;2023-02-20T08:08:02;5.20;99.90
17632;DHT22;8934;51.194;17.150;2023-02-20T08:10:50;5.40;99.90
17632;DHT22;8934;51.194;17.150;2023-02-20T08:13:53;5.50;99.90
17632;DHT22;8934;51.194;17.150;2023-02-20T08:16:42;5.60;99.90
17632;DHT22;8934;51.194;17.150;2023-02-20T08:19:30;5.70;99.90
17632;DHT22;8934;51.194;17.150;2023-02-20T08:22:17;5.80;99.90
17632;DHT22;8934;51.194;17.150;2023-02-20T08:25:08;5.90;99.90
17632;DHT22;8934;51.194;17.150;2023-02-20T08:27:55;6.00;99.90
17632;DHT22;8934;51.194;17.150;2023-02-20T08:30:43;6.10;99.90
17632;DHT22;8934;51.194;17.150;2023-02-20T08:33:32;6.30;99.90
17632;DHT22;8934;51.194;17.150;2023-02-20T08:36:19;6.40;99.90
17632;DHT22;8934;51.194;17.150;2023-02-20T08:39:06;6.50;99.90
17632;DHT22;8934;51.194;17.150;2023-02-20T08:41:54;6.50;99.90
17632;DHT22;8934;51.194;17.150;2023-02-20T08:44:42;6.60;99.90
17632;DHT22;8934;51.194;17.150;2023-02-20T08:47:29;6.70;99.90
17632;DHT22;8934;51.194;17.150;2023-02-20T08:50:18;6.80;99.90
17632;DHT22;8934;51.194;17.150;2023-02-20T08:53:06;6.90;99.90
17632;DHT22;8934;51.194;17.150;2023-02-20T08:55:53;7.00;99.90
17632;DHT22;8934;51.194;17.150;2023-02-20T08:58:41;7.10;99.90
17632;DHT22;8934;51.194;17.150;2023-02-20T09:04:54;7.20;99.90
17632;DHT22;8934;51.194;17.150;2023-02-20T09:07:44;7.30;99.90
17632;DHT22;8934;51.194;17.150;2023-02-20T09:10:31;7.30;99.90
17632;DHT22;8934;51.194;17.150;2023-02-20T09:13:19;7.40;99.90
17632;DHT22;8934;51.194;17.150;2023-02-20T09:16:07;7.50;99.90
17632;DHT22;8934;51.194;17.150;2023-02-20T09:18:55;7.60;99.90
17632;DHT22;8934;51.194;17.150;2023-02-20T09:21:45;7.60;99.90
17632;DHT22;8934;51.194;17.150;2023-02-20T09:24:35;7.70;99.90
17632;DHT22;8934;51.194;17.150;2023-02-20T09:27:22;7.70;99.90
17632;DHT22;8934;51.194;17.150;2023-02-20T09:30:13;7.60;99.90
17632;DHT22;8934;51.194;17.150;2023-02-20T09:33:02;7.60;99.90
17632;DHT22;8934;51.194;17.150;2023-02-20T09:35:50;7.70;99.90
17632;DHT22;8934;51.194;17.150;2023-02-20T09:38:40;7.70;99.90
17632;DHT22;8934;51.194;17.150;2023-02-20T09:41:37;7.80;99.90
17632;DHT22;8934;51.194;17.150;2023-02-20T09:44:37;7.90;99.90
17632;DHT22;8934;51.194;17.150;2023-02-20T09:47:35;8.00;99.90
17632;DHT22;8934;51.194;17.150;2023-02-20T09:50:30;8.00;99.90
17632;DHT22;8934;51.194;17.150;2023-02-20T09:53:22;8.10;99.90
17632;DHT22;8934;51.194;17.150;2023-02-20T09:56:16;8.10;99.90
17632;DHT22;8934;51.194;17.150;2023-02-20T09:59:12;8.20;99.90
17632;DHT22;8934;51.194;17.150;2023-02-20T10:02:08;8.20;99.90
17632;DHT22;8934;51.194;17.150;2023-02-20T10:05:01;8.20;99.90
17632;DHT22;8934;51.194;17.150;2023-02-20T10:07:51;8.20;99.90
17632;DHT22;8934;51.194;17.150;2023-02-20T10:10:39;8.20;99.90
17632;DHT22;8934;51.194;17.150;2023-02-20T10:13:41;8.20;99.90
17632;DHT22;8934;51.194;17.150;2023-02-20T10:16:38;8.20;99.90
17632;DHT22;8934;51.194;17.150;2023-02-20T10:19:35;8.30;99.90
17632;DHT22;8934;51.194;17.150;2023-02-20T10:22:31;8.40;99.90
17632;DHT22;8934;51.194;17.150;2023-02-20T10:25:24;8.50;99.90
17632;DHT22;8934;51.194;17.150;2023-02-20T10:28:15;8.60;99.90
17632;DHT22;8934;51.194;17.150;2023-02-20T10:31:12;8.70;99.90
17632;DHT22;8934;51.194;17.150;2023-02-20T10:34:07;8.90;99.90
17632;DHT22;8934;51.194;17.150;2023-02-20T10:37:02;8.90;99.90
17632;DHT22;8934;51.194;17.150;2023-02-20T10:40:01;9.00;99.90
17632;DHT22;8934;51.194;17.150;2023-02-20T10:42:54;9.20;99.90
17632;DHT22;8934;51.194;17.150;2023-02-20T10:45:51;9.30;99.90
17632;DHT22;8934;51.194;17.150;2023-02-20T10:48:41;9.50;99.90
17632;DHT22;8934;51.194;17.150;2023-02-20T10:51:35;9.60;99.90
17632;DHT22;8934;51.194;17.150;2023-02-20T10:54:29;9.70;99.90
17632;DHT22;8934;51.194;17.150;2023-02-20T10:57:24;9.80;99.90
17632;DHT22;8934;51.194;17.150;2023-02-20T11:00:15;9.90;99.90
17632;DHT22;8934;51.194;17.150;2023-02-20T11:03:07;9.90;99.90
17632;DHT22;8934;51.194;17.150;2023-02-20T11:05:58;9.90;99.90
17632;DHT22;8934;51.194;17.150;2023-02-20T11:08:49;9.90;99.90
17632;DHT22;8934;51.194;17.150;2023-02-20T11:11:39;9.90;99.90
17632;DHT22;8934;51.194;17.150;2023-02-20T11:14:32;9.90;99.90
17632;DHT22;8934;51.194;17.150;2023-02-20T11:17:28;10.00;99.90
17632;DHT22;8934;51.194;17.150;2023-02-20T11:20:49;10.00;99.90
17632;DHT22;8934;51.194;17.150;2023-02-20T11:23:39;10.10;99.90
17632;DHT22;8934;51.194;17.150;2023-02-20T11:26:31;10.10;99.90
17632;DHT22;8934;51.194;17.150;2023-02-20T11:29:21;10.30;99.90
17632;DHT22;8934;51.194;17.150;2023-02-20T11:32:22;10.40;99.90
17632;DHT22;8934;51.194;17.150;2023-02-20T11:35:24;10.50;99.90
17632;DHT22;8934;51.194;17.150;2023-02-20T11:38:30;10.60;99.90
17632;DHT22;8934;51.194;17.150;2023-02-20T11:41:25;10.70;99.90
17632;DHT22;8934;51.194;17.150;2023-02-20T11:44:25;10.80;99.90
17632;DHT22;8934;51.194;17.150;2023-02-20T11:47:22;10.90;99.90
17632;DHT22;8934;51.194;17.150;2023-02-20T11:50:15;10.90;99.90
17632;DHT22;8934;51.194;17.150;2023-02-20T11:53:05;10.90;99.90
17632;DHT22;8934;51.194;17.150;2023-02-20T11:56:07;11.00;99.90
17632;DHT22;8934;51.194;17.150;2023-02-20T11:59:16;11.00;99.90
17632;DHT22;8934;51.194;17.150;2023-02-20T12:02:25;11.10;99.90
17632;DHT22;8934;51.194;17.150;2023-02-20T12:05:14;11.20;99.90
17632;DHT22;8934;51.194;17.150;2023-02-20T12:08:02;11.20;99.90
17632;DHT22;8934;51.194;17.150;2023-02-20T12:10:52;11.10;99.90
17632;DHT22;8934;51.194;17.150;2023-02-20T12:13:42;11.20;99.90
17632;DHT22;8934;51.194;17.150;2023-02-20T12:16:39;11.30;99.90
17632;DHT22;8934;51.194;17.150;2023-02-20T12:19:39;11.30;99.90
17632;DHT22;8934;51.194;17.150;2023-02-20T12:22:33;11.30;99.90
17632;DHT22;8934;51.194;17.150;2023-02-20T12:25:24;11.30;99.90
17632;DHT22;8934;51.194;17.150;2023-02-20T12:28:16;11.20;99.90
17632;DHT22;8934;51.194;17.150;2023-02-20T12:31:20;11.30;99.90
17632;DHT22;8934;51.194;17.150;2023-02-20T12:34:36;11.40;99.90
17632;DHT22;8934;51.194;17.150;2023-02-20T12:37:34;11.50;99.90
17632;DHT22;8934;51.194;17.150;2023-02-20T12:40:38;11.80;99.90
17632;DHT22;8934;51.194;17.150;2023-02-20T12:43:35;12.10;99.90
17632;DHT22;8934;51.194;17.150;2023-02-20T12:46:28;12.30;99.90
17632;DHT22;8934;51.194;17.150;2023-02-20T12:49:33;12.50;99.90
17632;DHT22;8934;51.194;17.150;2023-02-20T12:52:39;12.60;99.90
17632;DHT22;8934;51.194;17.150;2023-02-20T12:55:37;12.70;99.90
17632;DHT22;8934;51.194;17.150;2023-02-20T12:58:46;12.70;99.90
17632;DHT22;8934;51.194;17.150;2023-02-20T13:01:35;12.70;99.90
17632;DHT22;8934;51.194;17.150;2023-02-20T13:04:29;12.60;99.90
17632;DHT22;8934;51.194;17.150;2023-02-20T13:07:23;12.60;99.90
17632;DHT22;8934;51.194;17.150;2023-02-20T13:10:17;12.70;99.90
17632;DHT22;8934;51.194;17.150;2023-02-20T13:13:09;12.70;99.90
17632;DHT22;8934;51.194;17.150;2023-02-20T13:16:00;12.60;99.90
17632;DHT22;8934;51.194;17.150;2023-02-20T13:18:56;12.60;99.90
17632;DHT22;8934;51.194;17.150;2023-02-20T13:21:45;12.50;99.90
17632;DHT22;8934;51.194;17.150;2023-02-20T13:24:34;12.40;99.90
17632;DHT22;8934;51.194;17.150;2023-02-20T13:27:29;12.30;99.90
17632;DHT22;8934;51.194;17.150;2023-02-20T13:30:19;12.30;99.90
17632;DHT22;8934;51.194;17.150;2023-02-20T13:33:12;12.30;99.90
17632;DHT22;8934;51.194;17.150;2023-02-20T13:36:04;12.20;99.90
17632;DHT22;8934;51.194;17.150;2023-02-20T13:42:36;12.50;99.90
17632;DHT22;8934;51.194;17.150;2023-02-20T13:45:38;12.60;99.90
17632;DHT22;8934;51.194;17.150;2023-02-20T13:48:42;12.60;99.90
17632;DHT22;8934;51.194;17.150;2023-02-20T13:51:34;12.60;99.90
17632;DHT22;8934;51.194;17.150;2023-02-20T13:54:26;12.70;99.90
17632;DHT22;8934;51.194;17.150;2023-02-20T13:57:17;12.70;99.90
17632;DHT22;8934;51.194;17.150;2023-02-20T14:00:20;12.80;99.90
17632;DHT22;8934;51.194;17.150;2023-02-20T14:03:10;12.80;99.90
17632;DHT22;8934;51.194;17.150;2023-02-20T14:06:04;12.80;99.90
17632;DHT22;8934;51.194;17.150;2023-02-20T14:09:06;12.70;99.90
17632;DHT22;8934;51.194;17.150;2023-02-20T14:12:02;12.70;99.90
17632;DHT22;8934;51.194;17.150;2023-02-20T14:14:50;12.60;99.90
17632;DHT22;8934;51.194;17.150;2023-02-20T14:17:41;12.50;99.90
17632;DHT22;8934;51.194;17.150;2023-02-20T14:20:33;12.50;99.90
17632;DHT22;8934;51.194;17.150;2023-02-20T14:23:25;12.50;99.90
17632;DHT22;8934;51.194;17.150;2023-02-20T14:26:19;12.50;99.90
17632;DHT22;8934;51.194;17.150;2023-02-20T14:29:19;12.40;99.90
17632;DHT22;8934;51.194;17.150;2023-02-20T14:32:13;12.40;99.90
17632;DHT22;8934;51.194;17.150;2023-02-20T14:35:09;12.30;99.90
17632;DHT22;8934;51.194;17.150;2023-02-20T14:38:06;12.20;99.90
17632;DHT22;8934;51.194;17.150;2023-02-20T14:40:58;12.20;99.90
17632;DHT22;8934;51.194;17.150;2023-02-20T14:43:54;12.10;99.90
17632;DHT22;8934;51.194;17.150;2023-02-20T14:46:41;12.00;99.90
17632;DHT22;8934;51.194;17.150;2023-02-20T14:49:29;11.90;99.90
17632;DHT22;8934;51.194;17.150;2023-02-20T14:52:21;11.90;99.90
17632;DHT22;8934;51.194;17.150;2023-02-20T14:55:14;11.90;99.90
17632;DHT22;8934;51.194;17.150;2023-02-20T14:58:05;11.90;99.90
17632;DHT22;8934;51.194;17.150;2023-02-20T15:00:52;11.80;99.90
17632;DHT22;8934;51.194;17.150;2023-02-20T15:03:42;11.80;99.90
17632;DHT22;8934;51.194;17.150;2023-02-20T15:06:33;11.80;99.90
17632;DHT22;8934;51.194;17.150;2023-02-20T15:09:22;11.70;99.90
17632;DHT22;8934;51.194;17.150;2023-02-20T15:12:22;11.70;99.90
17632;DHT22;8934;51.194;17.150;2023-02-20T15:15:12;11.70;99.90
17632;DHT22;8934;51.194;17.150;2023-02-20T15:18:09;11.60;99.90
17632;DHT22;8934;51.194;17.150;2023-02-20T15:20:59;11.60;99.90
17632;DHT22;8934;51.194;17.150;2023-02-20T15:23:47;11.60;99.90
17632;DHT22;8934;51.194;17.150;2023-02-20T15:26:36;11.60;99.90
17632;DHT22;8934;51.194;17.150;2023-02-20T15:29:26;11.60;99.90
17632;DHT22;8934;51.194;17.150;2023-02-20T15:32:17;11.60;99.90
17632;DHT22;8934;51.194;17.150;2023-02-20T15:35:11;11.60;99.90
17632;DHT22;8934;51.194;17.150;2023-02-20T15:38:01;11.50;99.90
17632;DHT22;8934;51.194;17.150;2023-02-20T15:40:48;11.50;99.90
17632;DHT22;8934;51.194;17.150;2023-02-20T15:43:37;11.50;99.90
17632;DHT22;8934;51.194;17.150;2023-02-20T15:46:34;11.60;99.90
17632;DHT22;8934;51.194;17.150;2023-02-20T15:49:21;11.60;99.90
17632;DHT22;8934;51.194;17.150;2023-02-20T15:52:14;11.60;99.90
17632;DHT22;8934;51.194;17.150;2023-02-20T15:55:04;11.60;99.90
17632;DHT22;8934;51.194;17.150;2023-02-20T15:57:54;11.50;99.90
17632;DHT22;8934;51.194;17.150;2023-02-20T16:00:44;11.50;99.90
17632;DHT22;8934;51.194;17.150;2023-02-20T16:03:32;11.40;99.90
17632;DHT22;8934;51.194;17.150;2023-02-20T16:06:36;11.40;99.90
17632;DHT22;8934;51.194;17.150;2023-02-20T16:09:24;11.40;99.90
17632;DHT22;8934;51.194;17.150;2023-02-20T16:12:15;11.40;99.90
17632;DHT22;8934;51.194;17.150;2023-02-20T16:15:04;11.40;99.90
17632;DHT22;8934;51.194;17.150;2023-02-20T16:17:54;11.40;99.90
17632;DHT22;8934;51.194;17.150;2023-02-20T16:20:41;11.50;99.90
17632;DHT22;8934;51.194;17.150;2023-02-20T16:23:29;11.50;99.90
17632;DHT22;8934;51.194;17.150;2023-02-20T16:26:21;11.40;99.90
17632;DHT22;8934;51.194;17.150;2023-02-20T16:29:15;11.40;99.90
17632;DHT22;8934;51.194;17.150;2023-02-20T16:32:18;11.40;99.90
17632;DHT22;8934;51.194;17.150;2023-02-20T16:35:11;11.40;99.90
17632;DHT22;8934;51.194;17.150;2023-02-20T16:37:59;11.30;99.90
17632;DHT22;8934;51.194;17.150;2023-02-20T16:40:46;11.30;99.90
17632;DHT22;8934;51.194;17.150;2023-02-20T16:43:39;11.30;99.90
17632;DHT22;8934;51.194;17.150;2023-02-20T16:46:27;11.30;99.90
17632;DHT22;8934;51.194;17.150;2023-02-20T16:49:23;11.20;99.90
17632;DHT22;8934;51.194;17.150;2023-02-20T16:52:15;11.20;99.90
17632;DHT22;8934;51.194;17.150;2023-02-20T16:55:06;11.20;99.90
17632;DHT22;8934;51.194;17.150;2023-02-20T16:57:53;11.20;99.90
17632;DHT22;8934;51.194;17.150;2023-02-20T17:00:41;11.20;99.90
17632;DHT22;8934;51.194;17.150;2023-02-20T17:03:42;11.10;99.90
17632;DHT22;8934;51.194;17.150;2023-02-20T17:06:30;11.10;99.90
17632;DHT22;8934;51.194;17.150;2023-02-20T17:09:18;11.00;99.90
17632;DHT22;8934;51.194;17.150;2023-02-20T17:12:10;11.00;99.90
17632;DHT22;8934;51.194;17.150;2023-02-20T17:14:58;10.90;99.90
17632;DHT22;8934;51.194;17.150;2023-02-20T17:17:46;10.90;99.90
17632;DHT22;8934;51.194;17.150;2023-02-20T17:20:34;10.90;99.90
17632;DHT22;8934;51.194;17.150;2023-02-20T17:23:22;10.90;99.90
17632;DHT22;8934;51.194;17.150;2023-02-20T17:26:11;10.90;99.90
17632;DHT22;8934;51.194;17.150;2023-02-20T17:28:58;10.90;99.90
17632;DHT22;8934;51.194;17.150;2023-02-20T17:31:46;10.90;99.90
17632;DHT22;8934;51.194;17.150;2023-02-20T17:34:34;10.90;99.90
17632;DHT22;8934;51.194;17.150;2023-02-20T17:37:22;10.80;99.90
17632;DHT22;8934;51.194;17.150;2023-02-20T17:40:12;10.70;99.90
17632;DHT22;8934;51.194;17.150;2023-02-20T17:43:01;10.60;99.90
17632;DHT22;8934;51.194;17.150;2023-02-20T17:45:48;10.60;99.90
17632;DHT22;8934;51.194;17.150;2023-02-20T17:48:36;10.60;99.90
17632;DHT22;8934;51.194;17.150;2023-02-20T17:51:24;10.50;99.90
17632;DHT22;8934;51.194;17.150;2023-02-20T17:54:12;10.50;99.90
17632;DHT22;8934;51.194;17.150;2023-02-20T17:57:00;10.50;99.90
17632;DHT22;8934;51.194;17.150;2023-02-20T17:59:49;10.50;99.90
17632;DHT22;8934;51.194;17.150;2023-02-20T18:02:36;10.40;99.90
17632;DHT22;8934;51.194;17.150;2023-02-20T18:05:24;10.40;99.90
17632;DHT22;8934;51.194;17.150;2023-02-20T18:08:11;10.30;99.90
17632;DHT22;8934;51.194;17.150;2023-02-20T18:10:59;10.30;99.90
17632;DHT22;8934;51.194;17.150;2023-02-20T18:13:47;10.30;99.90
17632;DHT22;8934;51.194;17.150;2023-02-20T18:16:36;10.30;99.90
17632;DHT22;8934;51.194;17.150;2023-02-20T18:19:24;10.30;99.90
17632;DHT22;8934;51.194;17.150;2023-02-20T18:22:13;10.30;99.90
17632;DHT22;8934;51.194;17.150;2023-02-20T18:25:00;10.30;99.90
17632;DHT22;8934;51.194;17.150;2023-02-20T18:27:48;10.30;99.90
17632;DHT22;8934;51.194;17.150;2023-02-20T18:30:35;10.30;99.90